FDX311 KPBI-KMEM
Flight info
| Callsign | FDX311 |
|---|---|
| Flight time | N/A |
| Altitude | 34000 |
| Route | TBIRD7 SMELZ EVANZ LGC WASER VANZE3 |
| Aircraft | MD11/H-SDE1E2E3FGHIJ2J3J4J5M1RWXY/LB1D1 |
Departure
| Time | 2026-05-04 04:27 |
|---|---|
| Airport | Palm Beach International Airport (KPBI) |
Arrival
| Time | N/A |
|---|---|
| Airport | Memphis International Airport (KMEM) |
| Time | Latitude | Longitude | Altitude | Speed | Heading |
|---|---|---|---|---|---|
| 2026-05-04 03:35 | 26.68492 | -80.07954 | 29 ft | 0 kts | 92° |
| 2026-05-04 04:00 | 26.68492 | -80.07970 | 29 ft | 4 kts | 102° |
| 2026-05-04 04:00 | 26.68501 | -80.07996 | 29 ft | 4 kts | 130° |
| 2026-05-04 04:01 | 26.68519 | -80.08013 | 29 ft | 4 kts | 159° |
| 2026-05-04 04:01 | 26.68544 | -80.08020 | 29 ft | 3 kts | 181° |
| 2026-05-04 04:01 | 26.68548 | -80.08020 | 29 ft | 0 kts | 183° |
| 2026-05-04 04:21 | 26.68547 | -80.08020 | 29 ft | 1 kts | 183° |
| 2026-05-04 04:21 | 26.68525 | -80.08021 | 29 ft | 4 kts | 183° |
| 2026-05-04 04:21 | 26.68498 | -80.08023 | 29 ft | 5 kts | 183° |
| 2026-05-04 04:21 | 26.68452 | -80.08026 | 29 ft | 9 kts | 183° |
| 2026-05-04 04:22 | 26.68399 | -80.08033 | 29 ft | 6 kts | 186° |
| 2026-05-04 04:22 | 26.68367 | -80.08035 | 29 ft | 4 kts | 182° |
| 2026-05-04 04:22 | 26.68319 | -80.08064 | 29 ft | 12 kts | 237° |
| 2026-05-04 04:22 | 26.68316 | -80.08178 | 29 ft | 15 kts | 273° |
| 2026-05-04 04:23 | 26.68320 | -80.08286 | 28 ft | 13 kts | 272° |
| 2026-05-04 04:23 | 26.68326 | -80.08389 | 29 ft | 15 kts | 275° |
| 2026-05-04 04:23 | 26.68334 | -80.08523 | 29 ft | 19 kts | 273° |
| 2026-05-04 04:23 | 26.68340 | -80.08688 | 29 ft | 23 kts | 271° |
| 2026-05-04 04:24 | 26.68345 | -80.08883 | 29 ft | 29 kts | 272° |
| 2026-05-04 04:24 | 26.68361 | -80.09139 | 29 ft | 35 kts | 274° |
| 2026-05-04 04:24 | 26.68367 | -80.09396 | 28 ft | 31 kts | 273° |
| 2026-05-04 04:24 | 26.68378 | -80.09625 | 29 ft | 28 kts | 270° |
| 2026-05-04 04:25 | 26.68387 | -80.09830 | 29 ft | 25 kts | 272° |
| 2026-05-04 04:25 | 26.68398 | -80.10055 | 29 ft | 33 kts | 272° |
| 2026-05-04 04:25 | 26.68408 | -80.10344 | 29 ft | 41 kts | 273° |
| 2026-05-04 04:25 | 26.68423 | -80.10656 | 29 ft | 38 kts | 272° |
| 2026-05-04 04:26 | 26.68397 | -80.10833 | 29 ft | 2 kts | 201° |
| 2026-05-04 04:26 | 26.68350 | -80.10808 | 29 ft | 17 kts | 137° |
| 2026-05-04 04:26 | 26.68313 | -80.10625 | 29 ft | 35 kts | 92° |
| 2026-05-04 04:26 | 26.68287 | -80.10045 | 29 ft | 119 kts | 90° |
| 2026-05-04 04:27 | 26.68227 | -80.08833 | 37 ft | 192 kts | 90° |
| 2026-05-04 04:27 | 26.68174 | -80.07294 | 819 ft | 191 kts | 92° |
| 2026-05-04 04:27 | 26.68112 | -80.05775 | 1769 ft | 206 kts | 89° |
| 2026-05-04 04:27 | 26.68121 | -80.04106 | 2349 ft | 222 kts | 83° |
| 2026-05-04 04:28 | 26.68657 | -80.02601 | 3482 ft | 182 kts | 57° |
| 2026-05-04 04:28 | 26.69361 | -80.01402 | 4342 ft | 200 kts | 57° |
| 2026-05-04 04:28 | 26.70179 | -79.99987 | 4552 ft | 230 kts | 56° |
| 2026-05-04 04:28 | 26.71278 | -79.98542 | 4700 ft | 259 kts | 42° |
| 2026-05-04 04:29 | 26.72885 | -79.97465 | 5083 ft | 277 kts | 18° |
| 2026-05-04 04:29 | 26.74781 | -79.96971 | 5974 ft | 283 kts | 8° |
| 2026-05-04 04:29 | 26.76761 | -79.96942 | 6844 ft | 287 kts | 348° |
| 2026-05-04 04:29 | 26.78609 | -79.97742 | 7745 ft | 286 kts | 323° |
| 2026-05-04 04:30 | 26.79953 | -79.99355 | 8604 ft | 285 kts | 297° |
| 2026-05-04 04:30 | 26.80756 | -80.01390 | 9408 ft | 287 kts | 288° |
| 2026-05-04 04:30 | 26.81393 | -80.03518 | 10212 ft | 292 kts | 286° |
| 2026-05-04 04:30 | 26.82042 | -80.05796 | 10359 ft | 321 kts | 286° |
| 2026-05-04 04:31 | 26.82757 | -80.08280 | 10519 ft | 348 kts | 286° |
| 2026-05-04 04:31 | 26.83522 | -80.10871 | 11312 ft | 352 kts | 287° |
| 2026-05-04 04:31 | 26.84295 | -80.13443 | 12202 ft | 353 kts | 286° |
| 2026-05-04 04:31 | 26.85087 | -80.16054 | 13055 ft | 355 kts | 286° |
| 2026-05-04 04:32 | 26.85889 | -80.18681 | 13851 ft | 357 kts | 286° |
| 2026-05-04 04:32 | 26.86695 | -80.21315 | 14606 ft | 359 kts | 285° |
| 2026-05-04 04:32 | 26.87508 | -80.23972 | 15328 ft | 362 kts | 285° |
| 2026-05-04 04:32 | 26.88327 | -80.26648 | 16006 ft | 364 kts | 285° |
| 2026-05-04 04:33 | 26.89147 | -80.29326 | 16657 ft | 366 kts | 285° |
| 2026-05-04 04:33 | 26.90027 | -80.32014 | 17284 ft | 369 kts | 288° |
| 2026-05-04 04:33 | 26.91248 | -80.34571 | 17879 ft | 378 kts | 299° |
| 2026-05-04 04:33 | 26.93029 | -80.36800 | 18475 ft | 391 kts | 313° |
| 2026-05-04 04:34 | 26.95352 | -80.38483 | 18997 ft | 405 kts | 327° |
| 2026-05-04 04:34 | 26.97970 | -80.39743 | 19473 ft | 414 kts | 332° |
| 2026-05-04 04:34 | 27.00701 | -80.40844 | 19933 ft | 419 kts | 333° |
| 2026-05-04 04:34 | 27.03476 | -80.41924 | 20408 ft | 422 kts | 333° |
| 2026-05-04 04:35 | 27.06243 | -80.43025 | 20859 ft | 425 kts | 333° |
| 2026-05-04 04:35 | 27.09028 | -80.44169 | 21320 ft | 428 kts | 332° |
| 2026-05-04 04:35 | 27.11827 | -80.45349 | 21799 ft | 431 kts | 332° |
| 2026-05-04 04:35 | 27.14604 | -80.46542 | 22223 ft | 434 kts | 331° |
| 2026-05-04 04:36 | 27.17457 | -80.47814 | 22694 ft | 437 kts | 330° |
| 2026-05-04 04:36 | 27.20263 | -80.49097 | 23164 ft | 439 kts | 330° |